createdAt,value
2017-06-26T00:02:12.550Z,10.63
2017-06-26T00:04:39.999Z,11.07
2017-06-26T00:07:07.452Z,11.85
2017-06-26T00:09:34.901Z,10.88
2017-06-26T00:12:02.382Z,10.25
2017-06-26T00:14:29.943Z,11.40
2017-06-26T00:16:57.596Z,10.15
2017-06-26T00:19:25.032Z,10.07
2017-06-26T00:21:52.473Z,11.50
2017-06-26T00:24:19.906Z,10.13
2017-06-26T00:26:47.519Z,10.32
2017-06-26T00:29:14.955Z,8.97
2017-06-26T00:31:42.403Z,9.23
2017-06-26T00:34:09.874Z,9.20
2017-06-26T00:36:37.342Z,9.65
2017-06-26T00:39:04.770Z,9.15
2017-06-26T00:41:32.252Z,9.75
2017-06-26T00:43:59.709Z,10.30
2017-06-26T00:46:27.140Z,9.40
2017-06-26T00:48:54.575Z,9.57
2017-06-26T00:51:22.051Z,9.80
2017-06-26T00:53:49.547Z,10.55
2017-06-26T00:56:17.082Z,13.70
2017-06-26T00:58:44.538Z,11.02
2017-06-26T01:01:12.002Z,11.15
2017-06-26T01:03:39.454Z,12.10
2017-06-26T01:06:06.887Z,10.77
2017-06-26T01:08:34.356Z,12.75
2017-06-26T01:11:01.794Z,12.50
2017-06-26T01:13:29.246Z,13.48
2017-06-26T01:15:56.719Z,13.73
2017-06-26T01:18:24.200Z,14.10
2017-06-26T01:20:51.755Z,14.02
2017-06-26T01:23:19.231Z,13.35
2017-06-26T01:25:46.783Z,14.13
2017-06-26T01:28:14.214Z,14.30
2017-06-26T01:30:41.650Z,14.20
2017-06-26T01:33:09.098Z,14.52
2017-06-26T01:35:36.599Z,16.07
2017-06-26T01:38:04.036Z,15.45
2017-06-26T01:40:31.514Z,15.35
2017-06-26T01:42:59.064Z,17.35
2017-06-26T01:45:26.546Z,15.40
2017-06-26T01:47:53.978Z,15.48
2017-06-26T01:50:21.430Z,17.30
2017-06-26T01:52:49.008Z,16.87
2017-06-26T01:55:16.551Z,16.98
2017-06-26T01:57:44.010Z,16.85
2017-06-26T02:00:11.481Z,15.98
2017-06-26T02:02:38.906Z,18.17
2017-06-26T02:05:06.379Z,17.92
2017-06-26T02:07:33.862Z,17.02
2017-06-26T02:10:02.112Z,17.07
2017-06-26T02:12:29.597Z,16.50
2017-06-26T02:14:57.869Z,15.93
2017-06-26T02:17:25.340Z,17.15
2017-06-26T02:19:53.603Z,16.30
2017-06-26T02:22:21.842Z,16.70
2017-06-26T02:24:49.306Z,18.02
2017-06-26T02:27:16.750Z,16.90
2017-06-26T02:29:44.242Z,17.73
2017-06-26T02:32:11.766Z,17.70
2017-06-26T02:34:39.207Z,17.70
2017-06-26T02:37:06.646Z,18.23
2017-06-26T02:39:34.139Z,19.20
2017-06-26T02:42:01.603Z,16.77
2017-06-26T02:44:29.151Z,17.50
2017-06-26T02:46:56.593Z,17.92
2017-06-26T02:49:24.048Z,16.92
2017-06-26T02:51:51.497Z,17.65
2017-06-26T02:54:18.946Z,17.65
2017-06-26T02:56:46.434Z,17.20
2017-06-26T02:59:13.890Z,17.00
2017-06-26T03:01:41.327Z,18.30
2017-06-26T03:04:08.785Z,16.77
2017-06-26T03:06:36.282Z,17.00
2017-06-26T03:09:03.715Z,17.73
2017-06-26T03:11:54.834Z,17.65
2017-06-26T03:14:22.278Z,17.37
2017-06-26T03:16:49.886Z,19.20
2017-06-26T03:19:18.125Z,18.55
2017-06-26T03:21:45.559Z,18.70
2017-06-26T03:24:13.012Z,19.23
2017-06-26T03:26:40.464Z,17.27
2017-06-26T03:29:07.909Z,17.90
2017-06-26T03:31:35.403Z,18.35
2017-06-26T03:34:02.854Z,18.20
2017-06-26T03:36:30.315Z,17.30
2017-06-26T03:38:57.751Z,17.60
2017-06-26T03:41:25.407Z,17.65
2017-06-26T03:43:52.883Z,18.35
2017-06-26T03:46:20.526Z,17.37
2017-06-26T03:48:48.002Z,18.08
2017-06-26T03:51:15.490Z,18.62
2017-06-26T03:53:43.742Z,18.42
2017-06-26T03:56:11.190Z,18.12
2017-06-26T03:58:38.755Z,16.67
2017-06-26T04:01:06.194Z,16.50
2017-06-26T04:03:33.660Z,16.60
2017-06-26T04:06:01.119Z,17.00
2017-06-26T04:08:28.654Z,16.23
2017-06-26T04:10:56.132Z,17.40
2017-06-26T04:13:23.598Z,16.45
2017-06-26T04:15:51.046Z,15.67
2017-06-26T04:18:18.502Z,15.77
2017-06-26T04:20:45.998Z,14.77
2017-06-26T04:23:14.220Z,15.98
2017-06-26T04:25:41.675Z,14.40
2017-06-26T04:28:09.162Z,14.30
2017-06-26T04:30:36.629Z,12.90
2017-06-26T04:33:04.957Z,11.90
2017-06-26T04:35:32.451Z,12.52
2017-06-26T04:37:59.911Z,13.07
2017-06-26T04:40:27.447Z,12.07
2017-06-26T04:42:54.890Z,11.57
2017-06-26T04:45:22.443Z,11.27
2017-06-26T04:47:49.936Z,12.13
2017-06-26T04:50:17.370Z,11.50
2017-06-26T04:52:44.806Z,9.93
2017-06-26T04:55:12.243Z,10.98
2017-06-26T04:57:39.785Z,9.23
2017-06-26T05:00:08.002Z,10.88
2017-06-26T05:02:35.448Z,10.00
2017-06-26T05:05:02.903Z,10.77
2017-06-26T05:07:30.390Z,9.10
2017-06-26T05:09:57.826Z,9.40
2017-06-26T05:12:25.259Z,8.70
2017-06-26T05:14:52.760Z,9.60
2017-06-26T05:17:20.330Z,9.95
2017-06-26T05:19:48.005Z,10.33
2017-06-26T05:22:15.469Z,10.48
2017-06-26T05:24:42.994Z,10.25
2017-06-26T05:27:10.468Z,9.77
2017-06-26T05:29:38.031Z,11.00
2017-06-26T05:32:05.450Z,8.73
2017-06-26T05:34:32.890Z,9.30
2017-06-26T05:37:00.354Z,12.60
2017-06-26T05:39:27.791Z,9.10
2017-06-26T05:41:55.255Z,8.23
2017-06-26T05:44:22.762Z,8.80
2017-06-26T05:46:50.374Z,8.00
2017-06-26T05:49:17.810Z,9.00
2017-06-26T05:51:46.009Z,7.15
2017-06-26T05:54:13.463Z,8.88
2017-06-26T05:56:40.920Z,7.55
2017-06-26T05:59:08.375Z,6.85
2017-06-26T06:01:35.808Z,9.95
2017-06-26T06:04:04.047Z,6.35
2017-06-26T06:06:31.510Z,7.53
2017-06-26T06:08:58.954Z,6.28
2017-06-26T06:11:26.403Z,4.78
2017-06-26T06:13:53.938Z,6.22
2017-06-26T06:16:21.563Z,6.15
2017-06-26T06:18:49.787Z,6.50
2017-06-26T06:21:17.254Z,6.18
2017-06-26T06:23:44.710Z,5.12
2017-06-26T06:26:12.344Z,5.10
2017-06-26T06:28:39.823Z,5.20
2017-06-26T06:31:07.374Z,6.45
2017-06-26T06:33:34.876Z,5.72
2017-06-26T06:36:03.120Z,4.60
2017-06-26T06:38:30.570Z,3.12
2017-06-26T06:40:58.208Z,3.10
2017-06-26T06:43:25.727Z,3.80
2017-06-26T06:45:53.253Z,3.43
2017-06-26T06:48:20.701Z,5.40
2017-06-26T06:50:48.208Z,3.90
2017-06-26T06:53:16.412Z,4.87
2017-06-26T06:55:43.899Z,5.20
2017-06-26T06:58:11.426Z,6.10
2017-06-26T07:00:38.887Z,5.25
2017-06-26T07:03:06.355Z,5.32
2017-06-26T07:05:33.804Z,4.00
2017-06-26T07:08:01.251Z,4.82
2017-06-26T07:10:28.683Z,3.72
2017-06-26T07:12:56.132Z,4.43
2017-06-26T07:15:24.354Z,6.15
2017-06-26T07:17:51.997Z,7.68
2017-06-26T07:20:19.556Z,5.77
2017-06-26T07:22:47.041Z,5.28
2017-06-26T07:25:14.491Z,4.70
2017-06-26T07:27:41.930Z,4.43
2017-06-26T07:30:09.430Z,4.35
2017-06-26T07:32:36.971Z,4.40
2017-06-26T07:35:04.512Z,5.10
2017-06-26T07:37:31.942Z,5.90
2017-06-26T07:39:59.422Z,4.12
2017-06-26T07:42:26.913Z,3.70
2017-06-26T07:44:54.450Z,4.22
2017-06-26T07:47:21.898Z,6.28
2017-06-26T07:49:50.010Z,4.47
2017-06-26T07:52:18.714Z,4.18
2017-06-26T07:54:46.940Z,3.45
2017-06-26T07:57:14.454Z,4.10
2017-06-26T07:59:41.978Z,6.37
2017-06-26T08:02:09.486Z,3.80
2017-06-26T08:04:36.958Z,3.45
2017-06-26T08:07:04.428Z,4.78
2017-06-26T08:09:31.957Z,4.43
2017-06-26T08:11:59.411Z,4.57
2017-06-26T08:14:26.848Z,3.53
2017-06-26T08:16:55.094Z,3.40
2017-06-26T08:19:22.531Z,2.90
2017-06-26T08:21:49.987Z,4.03
2017-06-26T08:24:17.533Z,6.72
2017-06-26T08:26:45.020Z,3.90
2017-06-26T08:29:13.244Z,3.75
2017-06-26T08:31:41.504Z,7.15
2017-06-26T08:34:09.021Z,5.40
2017-06-26T08:36:36.466Z,3.95
2017-06-26T08:39:03.917Z,2.87
2017-06-26T08:41:31.366Z,3.85
2017-06-26T08:43:58.844Z,2.75
2017-06-26T08:46:26.491Z,3.00
2017-06-26T08:48:53.966Z,4.20
2017-06-26T08:51:21.477Z,3.10
2017-06-26T08:53:48.962Z,2.53
2017-06-26T08:56:16.396Z,2.05
2017-06-26T08:58:43.890Z,2.58
2017-06-26T09:01:11.319Z,3.28
2017-06-26T09:03:38.762Z,3.92
2017-06-26T09:06:06.195Z,3.87
2017-06-26T09:08:33.744Z,3.90
2017-06-26T09:11:01.977Z,4.12
2017-06-26T09:13:29.538Z,3.90
2017-06-26T09:15:57.109Z,3.70
2017-06-26T09:18:24.539Z,2.90
2017-06-26T09:20:52.101Z,2.92
2017-06-26T09:23:19.559Z,2.97
2017-06-26T09:25:47.010Z,2.22
2017-06-26T09:28:14.512Z,3.87
2017-06-26T09:30:42.738Z,3.60
2017-06-26T09:33:10.203Z,3.10
2017-06-26T09:35:37.645Z,3.08
2017-06-26T09:38:05.088Z,1.50
2017-06-26T09:40:32.649Z,1.90
2017-06-26T09:43:00.083Z,2.50
2017-06-26T09:45:27.512Z,3.30
2017-06-26T09:47:55.839Z,3.33
2017-06-26T09:50:23.261Z,3.10
2017-06-26T09:52:51.490Z,2.42
2017-06-26T09:55:18.938Z,2.83
2017-06-26T09:57:46.403Z,3.15
2017-06-26T10:00:13.841Z,2.00
2017-06-26T10:02:41.310Z,4.00
2017-06-26T10:05:08.774Z,2.17
2017-06-26T10:07:36.219Z,3.00
2017-06-26T10:10:03.674Z,4.90
2017-06-26T10:12:31.163Z,2.80
2017-06-26T10:14:58.586Z,4.43
2017-06-26T10:17:26.010Z,2.07
2017-06-26T10:19:53.446Z,4.15
2017-06-26T10:22:21.656Z,2.00
2017-06-26T10:24:49.133Z,4.20
2017-06-26T10:27:16.699Z,5.22
2017-06-26T10:29:44.154Z,2.70
2017-06-26T10:32:11.602Z,2.53
2017-06-26T10:34:39.059Z,3.10
2017-06-26T10:37:06.519Z,3.67
2017-06-26T10:39:34.101Z,3.97
2017-06-26T10:42:01.648Z,4.10
2017-06-26T10:44:29.081Z,3.55
2017-06-26T10:46:56.629Z,3.00
2017-06-26T10:49:24.107Z,2.95
2017-06-26T10:51:51.541Z,3.22
2017-06-26T10:54:18.975Z,4.37
2017-06-26T10:56:46.496Z,3.40
2017-06-26T10:59:14.014Z,3.70
2017-06-26T11:01:41.449Z,4.37
2017-06-26T11:04:08.894Z,4.15
2017-06-26T11:06:37.144Z,3.00
2017-06-26T11:09:04.568Z,3.12
2017-06-26T11:11:32.650Z,3.22
2017-06-26T11:14:00.184Z,3.35
2017-06-26T11:16:27.622Z,4.72
2017-06-26T11:18:55.054Z,3.12
2017-06-26T11:21:23.324Z,3.65
2017-06-26T11:23:51.544Z,5.30
2017-06-26T11:26:19.039Z,3.95
2017-06-26T11:28:46.562Z,4.70
2017-06-26T11:31:14.099Z,5.35
2017-06-26T11:33:42.445Z,2.87
2017-06-26T11:36:09.919Z,3.67
2017-06-26T11:38:38.111Z,5.60
2017-06-26T11:41:05.566Z,6.87
2017-06-26T11:43:32.995Z,7.28
2017-06-26T11:46:01.195Z,4.37
2017-06-26T11:48:28.665Z,4.28
2017-06-26T11:50:56.095Z,5.07
2017-06-26T11:53:23.670Z,5.22
2017-06-26T11:55:51.138Z,3.90
2017-06-26T11:58:18.578Z,4.10
2017-06-26T12:00:46.047Z,4.57
2017-06-26T12:03:13.471Z,4.22
2017-06-26T12:05:42.065Z,6.00
2017-06-26T12:08:09.694Z,3.60
2017-06-26T12:10:37.247Z,3.33
2017-06-26T12:13:04.836Z,4.28
2017-06-26T12:15:33.041Z,3.62
2017-06-26T12:18:00.493Z,2.70
2017-06-26T12:20:27.981Z,2.60
2017-06-26T12:22:55.434Z,1.98
2017-06-26T12:25:22.899Z,2.75
2017-06-26T12:27:50.414Z,2.70
2017-06-26T12:30:17.904Z,4.30
2017-06-26T12:32:45.347Z,4.37
2017-06-26T12:35:12.934Z,3.17
2017-06-26T12:37:40.367Z,2.95
2017-06-26T12:40:07.823Z,3.50
2017-06-26T12:42:35.327Z,5.70
2017-06-26T12:45:03.586Z,4.80
2017-06-26T12:47:31.027Z,3.00
2017-06-26T12:49:58.467Z,5.90
2017-06-26T12:52:25.963Z,5.62
2017-06-26T12:54:54.166Z,2.20
2017-06-26T12:57:21.614Z,3.85
2017-06-26T12:59:49.145Z,3.92
2017-06-26T13:02:16.595Z,4.12
2017-06-26T13:04:44.162Z,4.65
2017-06-26T13:07:11.700Z,3.70
2017-06-26T13:09:39.230Z,4.68
2017-06-26T13:12:06.639Z,5.82
2017-06-26T13:14:34.874Z,4.12
2017-06-26T13:17:02.395Z,3.80
2017-06-26T13:19:29.842Z,3.97
2017-06-26T13:21:57.292Z,6.15
2017-06-26T13:24:25.507Z,3.47
2017-06-26T13:26:53.023Z,4.30
2017-06-26T13:29:21.255Z,5.12
2017-06-26T13:31:48.687Z,3.45
2017-06-26T13:34:16.247Z,3.80
2017-06-26T13:36:43.728Z,8.35
2017-06-26T13:39:11.211Z,5.40
2017-06-26T13:41:38.718Z,6.90
2017-06-26T13:44:06.279Z,3.35
2017-06-26T13:46:33.728Z,4.20
2017-06-26T13:49:01.148Z,3.85
2017-06-26T13:51:29.343Z,6.43
2017-06-26T13:53:56.778Z,4.95
2017-06-26T13:56:24.329Z,5.73
2017-06-26T13:58:51.792Z,6.15
2017-06-26T14:01:19.271Z,3.37
2017-06-26T14:03:46.799Z,4.30
2017-06-26T14:06:14.222Z,4.05
2017-06-26T14:08:41.718Z,3.72
2017-06-26T14:11:09.910Z,4.47
2017-06-26T14:13:37.365Z,3.10
2017-06-26T14:16:05.562Z,3.15
2017-06-26T14:18:33.009Z,5.80
2017-06-26T14:21:00.603Z,5.70
2017-06-26T14:23:28.051Z,5.32
2017-06-26T14:25:55.482Z,5.85
2017-06-26T14:28:23.090Z,3.80
2017-06-26T14:30:50.634Z,4.53
2017-06-26T14:33:18.985Z,6.40
2017-06-26T14:35:46.507Z,4.65
2017-06-26T14:38:14.722Z,5.10
2017-06-26T14:40:42.196Z,6.80
2017-06-26T14:43:09.679Z,5.70
2017-06-26T14:45:37.212Z,3.17
2017-06-26T14:48:04.663Z,5.45
2017-06-26T14:50:32.110Z,4.68
2017-06-26T14:52:59.579Z,5.80
2017-06-26T14:55:27.054Z,4.70
2017-06-26T14:57:54.587Z,5.57
2017-06-26T15:00:22.047Z,3.90
2017-06-26T15:02:49.502Z,6.32
2017-06-26T15:05:16.942Z,5.43
2017-06-26T15:07:44.478Z,4.23
2017-06-26T15:10:12.711Z,5.97
2017-06-26T15:12:40.139Z,7.40
2017-06-26T15:15:07.603Z,5.22
2017-06-26T15:17:35.059Z,5.17
2017-06-26T15:20:02.546Z,5.53
2017-06-26T15:22:29.991Z,3.80
2017-06-26T15:24:57.414Z,5.82
2017-06-26T15:27:24.891Z,5.33
2017-06-26T15:29:52.425Z,5.75
2017-06-26T15:32:19.907Z,3.90
2017-06-26T15:34:47.339Z,4.10
2017-06-26T15:37:14.784Z,4.53
2017-06-26T15:39:42.227Z,7.68
2017-06-26T15:42:09.705Z,5.15
2017-06-26T15:44:37.365Z,5.28
2017-06-26T15:47:04.815Z,3.10
2017-06-26T15:49:32.431Z,5.95
2017-06-26T15:51:59.941Z,4.40
2017-06-26T15:54:27.840Z,4.07
2017-06-26T15:56:55.287Z,4.60
2017-06-26T15:59:22.730Z,3.17
2017-06-26T16:01:50.169Z,3.85
2017-06-26T16:04:17.660Z,4.72
2017-06-26T16:06:45.185Z,3.70
2017-06-26T16:09:12.700Z,5.28
2017-06-26T16:11:40.127Z,3.05
2017-06-26T16:14:07.679Z,4.65
2017-06-26T16:16:35.235Z,3.67
2017-06-26T16:19:02.834Z,4.45
2017-06-26T16:21:31.156Z,4.45
2017-06-26T16:23:58.654Z,5.15
2017-06-26T16:26:26.090Z,4.70
2017-06-26T16:28:53.646Z,3.67
2017-06-26T16:31:21.111Z,4.78
2017-06-26T16:33:48.691Z,6.50
2017-06-26T16:36:17.124Z,3.03
2017-06-26T16:38:44.554Z,3.58
2017-06-26T16:41:12.002Z,3.45
2017-06-26T16:43:40.343Z,3.65
2017-06-26T16:46:07.778Z,2.90
2017-06-26T16:48:35.223Z,4.90
2017-06-26T16:51:02.699Z,3.70
2017-06-26T16:53:30.342Z,5.45
2017-06-26T16:55:57.902Z,4.15
2017-06-26T16:58:25.479Z,6.27
2017-06-26T17:00:52.911Z,4.97
2017-06-26T17:03:20.473Z,5.40
2017-06-26T17:05:47.921Z,5.53
2017-06-26T17:08:15.411Z,5.20
2017-06-26T17:10:42.878Z,4.55
2017-06-26T17:13:10.608Z,6.03
2017-06-26T17:15:38.316Z,3.80
2017-06-26T17:18:05.824Z,4.70
2017-06-26T17:20:33.306Z,6.40
2017-06-26T17:23:00.841Z,5.32
2017-06-26T17:25:28.283Z,6.45
2017-06-26T17:27:55.803Z,4.43
2017-06-26T17:30:24.029Z,4.30
2017-06-26T17:32:51.463Z,4.95
2017-06-26T17:35:18.971Z,4.65
2017-06-26T17:37:46.406Z,4.80
2017-06-26T17:40:14.022Z,5.22
2017-06-26T17:42:42.227Z,3.83
2017-06-26T17:45:09.699Z,7.40
2017-06-26T17:47:37.179Z,5.60
2017-06-26T17:50:04.622Z,6.57
2017-06-26T17:52:32.110Z,6.82
2017-06-26T17:54:59.636Z,4.93
2017-06-26T17:57:27.079Z,5.37
2017-06-26T17:59:54.551Z,4.75
2017-06-26T18:02:22.119Z,3.97
2017-06-26T18:04:49.674Z,5.78
2017-06-26T18:07:17.119Z,4.30
2017-06-26T18:09:44.610Z,5.53
2017-06-26T18:12:12.133Z,5.28
2017-06-26T18:14:39.710Z,6.43
2017-06-26T18:17:07.162Z,6.43
2017-06-26T18:19:34.598Z,5.78
2017-06-26T18:22:02.101Z,7.90
2017-06-26T18:24:30.297Z,6.15
2017-06-26T18:26:57.803Z,5.60
2017-06-26T18:29:25.235Z,6.80
2017-06-26T18:31:52.700Z,3.90
2017-06-26T18:34:20.171Z,4.57
2017-06-26T18:36:47.700Z,4.07
2017-06-26T18:39:15.144Z,6.47
2017-06-26T18:41:42.642Z,7.40
2017-06-26T18:44:10.111Z,3.53
2017-06-26T18:46:37.594Z,5.50
2017-06-26T18:49:05.180Z,6.78
2017-06-26T18:51:32.658Z,5.95
2017-06-26T18:54:00.242Z,5.00
2017-06-26T18:56:27.887Z,9.60
2017-06-26T18:58:55.344Z,7.50
2017-06-26T19:01:22.772Z,5.72
2017-06-26T19:03:50.254Z,4.75
2017-06-26T19:06:17.715Z,4.85
2017-06-26T19:08:45.180Z,7.22
2017-06-26T19:11:12.614Z,6.03
2017-06-26T19:13:40.090Z,6.57
2017-06-26T19:16:07.717Z,6.53
2017-06-26T19:18:35.171Z,5.60
2017-06-26T19:21:02.719Z,7.45
2017-06-26T19:23:30.207Z,5.82
2017-06-26T19:25:57.667Z,5.40
2017-06-26T19:28:25.155Z,9.07
2017-06-26T19:30:52.682Z,4.93
2017-06-26T19:33:20.153Z,6.35
2017-06-26T19:35:47.606Z,6.50
2017-06-26T19:38:15.085Z,7.80
2017-06-26T19:40:42.506Z,3.60
2017-06-26T19:43:09.981Z,6.00
2017-06-26T19:45:37.499Z,5.20
2017-06-26T19:48:04.981Z,7.75
2017-06-26T19:50:32.414Z,6.85
2017-06-26T19:53:00.734Z,4.60
2017-06-26T19:55:28.406Z,10.48
2017-06-26T19:57:56.765Z,4.35
2017-06-26T20:00:24.203Z,4.32
2017-06-26T20:02:51.768Z,7.70
2017-06-26T20:05:19.243Z,5.60
2017-06-26T20:07:46.708Z,6.30
2017-06-26T20:10:14.153Z,8.80
2017-06-26T20:12:41.582Z,9.07
2017-06-26T20:15:09.046Z,7.50
2017-06-26T20:17:36.542Z,4.62
2017-06-26T20:20:04.762Z,10.33
2017-06-26T20:22:32.188Z,5.60
2017-06-26T20:24:59.646Z,6.05
2017-06-26T20:27:27.078Z,7.65
2017-06-26T20:29:55.323Z,6.55
2017-06-26T20:32:22.852Z,8.90
2017-06-26T20:34:50.330Z,7.90
2017-06-26T20:37:17.810Z,10.07
2017-06-26T20:39:45.355Z,9.32
2017-06-26T20:42:12.794Z,8.00
2017-06-26T20:44:40.246Z,8.02
2017-06-26T20:47:07.777Z,6.55
2017-06-26T20:49:35.218Z,8.13
2017-06-26T20:52:03.442Z,7.00
2017-06-26T20:54:30.899Z,7.70
2017-06-26T20:56:58.375Z,10.98
2017-06-26T20:59:25.819Z,7.90
2017-06-26T21:01:53.260Z,8.27
2017-06-26T21:04:20.735Z,9.32
2017-06-26T21:06:48.417Z,12.23
2017-06-26T21:09:15.850Z,15.02
2017-06-26T21:11:43.341Z,16.08
2017-06-26T21:14:11.582Z,16.02
2017-06-26T21:16:39.026Z,11.20
2017-06-26T21:19:06.569Z,11.35
2017-06-26T21:21:34.064Z,11.27
2017-06-26T21:24:01.501Z,11.65
2017-06-26T21:26:28.955Z,9.35
2017-06-26T21:28:56.442Z,9.45
2017-06-26T21:31:23.878Z,9.90
2017-06-26T21:33:51.348Z,7.00
2017-06-26T21:36:18.883Z,7.20
2017-06-26T21:38:46.324Z,9.02
2017-06-26T21:41:13.839Z,10.00
2017-06-26T21:43:42.076Z,9.65
2017-06-26T21:46:09.515Z,7.85
2017-06-26T21:48:36.978Z,7.15
2017-06-26T21:51:04.500Z,7.80
2017-06-26T21:53:32.000Z,6.78
2017-06-26T21:55:59.463Z,9.27
2017-06-26T21:58:27.113Z,6.00
2017-06-26T22:00:54.580Z,7.70
2017-06-26T22:03:22.006Z,10.55
2017-06-26T22:05:49.477Z,10.90
2017-06-26T22:08:16.934Z,7.18
2017-06-26T22:10:44.410Z,10.90
2017-06-26T22:13:11.858Z,9.93
2017-06-26T22:15:39.639Z,8.23
2017-06-26T22:18:07.084Z,8.27
2017-06-26T22:20:34.514Z,6.45
2017-06-26T22:23:02.016Z,9.18
2017-06-26T22:25:29.455Z,9.20
2017-06-26T22:27:56.919Z,9.18
2017-06-26T22:30:24.356Z,7.40
2017-06-26T22:32:51.851Z,7.47
2017-06-26T22:35:20.120Z,7.57
2017-06-26T22:37:47.552Z,8.45
2017-06-26T22:40:15.016Z,7.93
2017-06-26T22:42:42.579Z,8.32
2017-06-26T22:45:10.022Z,8.50
2017-06-26T22:47:37.483Z,7.62
2017-06-26T22:50:04.946Z,7.50
2017-06-26T22:52:32.419Z,7.80
2017-06-26T22:55:00.639Z,7.80
2017-06-26T22:57:28.153Z,7.22
2017-06-26T22:59:55.679Z,6.80
2017-06-26T23:02:23.144Z,7.03
2017-06-26T23:04:50.690Z,9.77
2017-06-26T23:07:18.148Z,9.07
2017-06-26T23:09:45.610Z,7.70
2017-06-26T23:12:13.150Z,9.25
2017-06-26T23:14:40.654Z,8.88
2017-06-26T23:17:08.868Z,8.80
2017-06-26T23:19:36.299Z,8.80
2017-06-26T23:22:03.810Z,10.00
2017-06-26T23:24:31.262Z,8.27
2017-06-26T23:26:58.687Z,8.63
2017-06-26T23:29:26.167Z,8.93
2017-06-26T23:31:53.614Z,9.07
2017-06-26T23:34:21.038Z,8.63
2017-06-26T23:36:48.537Z,9.93
2017-06-26T23:39:15.974Z,10.13
2017-06-26T23:41:43.420Z,10.18
2017-06-26T23:44:10.919Z,10.38
2017-06-26T23:46:38.366Z,8.57
2017-06-26T23:49:05.808Z,10.05
2017-06-26T23:51:33.255Z,9.98
2017-06-26T23:54:00.730Z,7.05
2017-06-26T23:56:28.218Z,6.47
2017-06-26T23:58:55.638Z,8.35
